sensor_id;sensor_type;location;lat;lon;timestamp;pressure;altitude;pressure_sealevel;temperature;humidity
48622;BME280;34421;48.944;9.460;2023-07-20T00:02:14;98300.19;;;22.73;43.05
48622;BME280;34421;48.944;9.460;2023-07-20T00:04:39;98304.28;;;22.70;42.63
48622;BME280;34421;48.944;9.460;2023-07-20T00:07:05;98308.38;;;22.68;41.93
48622;BME280;34421;48.944;9.460;2023-07-20T00:09:30;98308.16;;;22.64;41.99
48622;BME280;34421;48.944;9.460;2023-07-20T00:11:56;98305.00;;;22.57;41.92
48622;BME280;34421;48.944;9.460;2023-07-20T00:14:21;98307.81;;;22.52;42.02
48622;BME280;34421;48.944;9.460;2023-07-20T00:16:49;98315.41;;;22.50;41.47
48622;BME280;34421;48.944;9.460;2023-07-20T00:19:21;98317.09;;;22.46;41.59
48622;BME280;34421;48.944;9.460;2023-07-20T00:21:46;98313.06;;;22.43;41.42
48622;BME280;34421;48.944;9.460;2023-07-20T00:24:11;98313.94;;;22.39;41.46
48622;BME280;34421;48.944;9.460;2023-07-20T00:26:36;98322.38;;;22.37;41.61
48622;BME280;34421;48.944;9.460;2023-07-20T00:29:02;98317.53;;;22.34;41.21
48622;BME280;34421;48.944;9.460;2023-07-20T00:31:28;98324.16;;;22.23;41.21
48622;BME280;34421;48.944;9.460;2023-07-20T00:33:54;98311.28;;;22.10;41.28
48622;BME280;34421;48.944;9.460;2023-07-20T00:36:19;98325.75;;;22.00;42.21
48622;BME280;34421;48.944;9.460;2023-07-20T00:38:45;98319.59;;;21.94;41.79
48622;BME280;34421;48.944;9.460;2023-07-20T00:41:10;98308.25;;;21.92;43.16
48622;BME280;34421;48.944;9.460;2023-07-20T00:43:35;98313.59;;;21.97;42.71
48622;BME280;34421;48.944;9.460;2023-07-20T00:46:00;98308.38;;;22.01;42.44
48622;BME280;34421;48.944;9.460;2023-07-20T00:48:28;98306.72;;;22.05;42.40
48622;BME280;34421;48.944;9.460;2023-07-20T00:50:54;98309.66;;;22.08;42.64
48622;BME280;34421;48.944;9.460;2023-07-20T00:53:20;98305.84;;;22.10;42.94
48622;BME280;34421;48.944;9.460;2023-07-20T00:55:46;98311.28;;;22.10;42.14
48622;BME280;34421;48.944;9.460;2023-07-20T00:58:12;98315.09;;;22.08;42.60
48622;BME280;34421;48.944;9.460;2023-07-20T01:00:37;98315.09;;;22.08;42.47
48622;BME280;34421;48.944;9.460;2023-07-20T01:03:02;98308.88;;;22.08;42.51
48622;BME280;34421;48.944;9.460;2023-07-20T01:05:38;98312.97;;;22.05;42.29
48622;BME280;34421;48.944;9.460;2023-07-20T01:08:36;98319.53;;;21.99;42.29
48622;BME280;34421;48.944;9.460;2023-07-20T01:11:28;98324.50;;;21.92;42.84
48622;BME280;34421;48.944;9.460;2023-07-20T01:13:56;98324.31;;;21.83;43.67
48622;BME280;34421;48.944;9.460;2023-07-20T01:16:21;98329.22;;;21.81;43.01
48622;BME280;34421;48.944;9.460;2023-07-20T01:18:46;98332.72;;;21.82;43.55
48622;BME280;34421;48.944;9.460;2023-07-20T01:21:20;98327.16;;;21.68;42.76
48622;BME280;34421;48.944;9.460;2023-07-20T01:32:18;98324.78;;;20.98;44.40
48622;BME280;34421;48.944;9.460;2023-07-20T01:34:46;98327.03;;;20.86;44.65
48622;BME280;34421;48.944;9.460;2023-07-20T01:37:12;98331.91;;;20.79;44.93
48622;BME280;34421;48.944;9.460;2023-07-20T01:39:40;98336.28;;;20.75;44.74
48622;BME280;34421;48.944;9.460;2023-07-20T01:42:05;98328.50;;;20.68;45.02
48622;BME280;34421;48.944;9.460;2023-07-20T01:44:31;98326.38;;;20.55;44.68
48622;BME280;34421;48.944;9.460;2023-07-20T01:46:57;98329.38;;;20.43;45.98
48622;BME280;34421;48.944;9.460;2023-07-20T01:49:22;98331.84;;;20.34;46.10
48622;BME280;34421;48.944;9.460;2023-07-20T01:51:47;98333.25;;;20.21;46.19
48622;BME280;34421;48.944;9.460;2023-07-20T01:54:12;98324.38;;;20.11;46.55
48622;BME280;34421;48.944;9.460;2023-07-20T01:56:38;98332.81;;;19.99;46.92
48622;BME280;34421;48.944;9.460;2023-07-20T01:59:03;98326.06;;;19.91;47.28
48622;BME280;34421;48.944;9.460;2023-07-20T02:01:29;98329.88;;;19.80;47.57
48622;BME280;34421;48.944;9.460;2023-07-20T02:03:54;98333.97;;;19.72;47.93
48622;BME280;34421;48.944;9.460;2023-07-20T02:06:19;98334.47;;;19.64;48.04
48622;BME280;34421;48.944;9.460;2023-07-20T02:08:45;98343.13;;;19.56;48.30
48622;BME280;34421;48.944;9.460;2023-07-20T02:11:10;98337.44;;;19.42;48.72
48622;BME280;34421;48.944;9.460;2023-07-20T02:13:36;98339.09;;;19.28;48.95
48622;BME280;34421;48.944;9.460;2023-07-20T02:16:01;98346.13;;;19.19;49.09
48622;BME280;34421;48.944;9.460;2023-07-20T02:18:26;98343.69;;;19.07;49.50
48622;BME280;34421;48.944;9.460;2023-07-20T02:20:53;98335.56;;;18.97;49.83
48622;BME280;34421;48.944;9.460;2023-07-20T02:23:18;98345.25;;;18.87;50.38
48622;BME280;34421;48.944;9.460;2023-07-20T02:25:44;98347.97;;;18.87;50.40
48622;BME280;34421;48.944;9.460;2023-07-20T02:28:13;98335.28;;;18.78;50.56
48622;BME280;34421;48.944;9.460;2023-07-20T02:30:38;98347.63;;;18.68;51.21
48622;BME280;34421;48.944;9.460;2023-07-20T02:33:04;98348.41;;;18.64;51.37
48622;BME280;34421;48.944;9.460;2023-07-20T02:35:31;98344.09;;;18.58;52.02
48622;BME280;34421;48.944;9.460;2023-07-20T02:37:56;98340.25;;;18.43;52.08
48622;BME280;34421;48.944;9.460;2023-07-20T02:40:22;98344.84;;;18.43;52.45
48622;BME280;34421;48.944;9.460;2023-07-20T02:42:48;98348.03;;;18.35;52.24
48622;BME280;34421;48.944;9.460;2023-07-20T02:45:14;98348.25;;;18.18;52.62
48622;BME280;34421;48.944;9.460;2023-07-20T02:47:39;98355.19;;;18.04;52.73
48622;BME280;34421;48.944;9.460;2023-07-20T02:50:07;98364.28;;;17.92;53.55
48622;BME280;34421;48.944;9.460;2023-07-20T02:52:33;98364.81;;;17.89;54.07
48622;BME280;34421;48.944;9.460;2023-07-20T02:54:58;98359.66;;;17.83;53.48
48622;BME280;34421;48.944;9.460;2023-07-20T02:57:23;98360.63;;;17.71;54.42
48622;BME280;34421;48.944;9.460;2023-07-20T02:59:49;98354.66;;;17.64;53.99
48622;BME280;34421;48.944;9.460;2023-07-20T03:02:14;98364.06;;;17.62;54.85
48622;BME280;34421;48.944;9.460;2023-07-20T03:04:40;98364.28;;;17.55;54.77
48622;BME280;34421;48.944;9.460;2023-07-20T03:07:05;98358.00;;;17.44;54.55
48622;BME280;34421;48.944;9.460;2023-07-20T03:09:32;98360.94;;;17.43;55.49
48622;BME280;34421;48.944;9.460;2023-07-20T03:11:57;98359.84;;;17.39;54.78
48622;BME280;34421;48.944;9.460;2023-07-20T03:14:22;98358.97;;;17.33;55.47
48622;BME280;34421;48.944;9.460;2023-07-20T03:16:49;98374.28;;;17.27;55.50
48622;BME280;34421;48.944;9.460;2023-07-20T03:19:14;98375.59;;;17.25;55.85
48622;BME280;34421;48.944;9.460;2023-07-20T03:21:39;98374.50;;;17.21;55.55
48622;BME280;34421;48.944;9.460;2023-07-20T03:24:07;98376.03;;;17.12;56.52
48622;BME280;34421;48.944;9.460;2023-07-20T03:26:33;98376.25;;;17.10;56.60
48622;BME280;34421;48.944;9.460;2023-07-20T03:28:59;98382.41;;;17.05;56.42
48622;BME280;34421;48.944;9.460;2023-07-20T03:31:25;98386.94;;;17.00;57.43
48622;BME280;34421;48.944;9.460;2023-07-20T03:33:50;98393.91;;;16.96;57.41
48622;BME280;34421;48.944;9.460;2023-07-20T03:36:15;98376.91;;;16.90;57.21
48622;BME280;34421;48.944;9.460;2023-07-20T03:38:40;98387.81;;;16.83;56.95
48622;BME280;34421;48.944;9.460;2023-07-20T03:41:06;98393.16;;;16.78;57.16
48622;BME280;34421;48.944;9.460;2023-07-20T03:43:31;98386.09;;;16.72;57.92
48622;BME280;34421;48.944;9.460;2023-07-20T03:45:56;98394.09;;;16.67;57.91
48622;BME280;34421;48.944;9.460;2023-07-20T03:48:23;98395.41;;;16.64;58.13
48622;BME280;34421;48.944;9.460;2023-07-20T03:50:51;98387.25;;;16.59;58.04
48622;BME280;34421;48.944;9.460;2023-07-20T03:53:17;98395.59;;;16.58;58.18
48622;BME280;34421;48.944;9.460;2023-07-20T03:55:50;98395.03;;;16.56;58.09
48622;BME280;34421;48.944;9.460;2023-07-20T03:58:17;98396.84;;;16.50;58.61
48622;BME280;34421;48.944;9.460;2023-07-20T04:00:46;98391.47;;;16.50;58.29
48622;BME280;34421;48.944;9.460;2023-07-20T04:03:13;98400.31;;;16.51;58.56
48622;BME280;34421;48.944;9.460;2023-07-20T04:05:38;98403.78;;;16.46;58.49
48622;BME280;34421;48.944;9.460;2023-07-20T04:08:04;98397.91;;;16.49;59.37
48622;BME280;34421;48.944;9.460;2023-07-20T04:10:29;98405.28;;;16.59;59.28
48622;BME280;34421;48.944;9.460;2023-07-20T04:12:55;98408.63;;;16.71;58.56
48622;BME280;34421;48.944;9.460;2023-07-20T04:15:20;98408.84;;;16.64;59.21
48622;BME280;34421;48.944;9.460;2023-07-20T04:17:45;98413.88;;;16.78;59.11
48622;BME280;34421;48.944;9.460;2023-07-20T04:20:11;98406.47;;;16.90;58.95
48622;BME280;34421;48.944;9.460;2023-07-20T04:22:36;98418.28;;;16.89;58.57
48622;BME280;34421;48.944;9.460;2023-07-20T04:25:03;98415.94;;;16.98;58.82
48622;BME280;34421;48.944;9.460;2023-07-20T04:27:28;98416.59;;;17.05;58.61
48622;BME280;34421;48.944;9.460;2023-07-20T04:29:53;98415.00;;;17.09;58.98
48622;BME280;34421;48.944;9.460;2023-07-20T04:32:19;98412.88;;;17.11;59.07
48622;BME280;34421;48.944;9.460;2023-07-20T04:34:44;98419.88;;;17.12;58.30
48622;BME280;34421;48.944;9.460;2023-07-20T04:37:10;98416.94;;;17.14;59.16
48622;BME280;34421;48.944;9.460;2023-07-20T04:39:35;98414.19;;;17.08;59.06
48622;BME280;34421;48.944;9.460;2023-07-20T04:42:00;98411.56;;;17.14;59.44
48622;BME280;34421;48.944;9.460;2023-07-20T04:44:26;98418.09;;;17.23;58.68
48622;BME280;34421;48.944;9.460;2023-07-20T04:46:51;98414.63;;;17.27;58.78
48622;BME280;34421;48.944;9.460;2023-07-20T04:49:16;98413.59;;;17.28;58.81
48622;BME280;34421;48.944;9.460;2023-07-20T04:51:42;98414.19;;;17.36;58.50
48622;BME280;34421;48.944;9.460;2023-07-20T04:54:07;98410.16;;;17.38;58.87
48622;BME280;34421;48.944;9.460;2023-07-20T04:56:32;98408.34;;;17.44;59.53
48622;BME280;34421;48.944;9.460;2023-07-20T04:58:58;98404.34;;;17.51;59.23
48622;BME280;34421;48.944;9.460;2023-07-20T05:01:24;98414.66;;;17.60;59.39
48622;BME280;34421;48.944;9.460;2023-07-20T05:03:49;98411.47;;;17.68;58.46
48622;BME280;34421;48.944;9.460;2023-07-20T05:06:15;98417.44;;;17.75;58.49
48622;BME280;34421;48.944;9.460;2023-07-20T05:08:40;98410.00;;;17.82;58.25
48622;BME280;34421;48.944;9.460;2023-07-20T05:11:06;98408.97;;;17.93;58.75
48622;BME280;34421;48.944;9.460;2023-07-20T05:13:32;98413.09;;;18.01;58.59
48622;BME280;34421;48.944;9.460;2023-07-20T05:15:57;98412.53;;;17.99;58.23
48622;BME280;34421;48.944;9.460;2023-07-20T05:18:23;98413.88;;;18.02;58.02
48622;BME280;34421;48.944;9.460;2023-07-20T05:20:49;98420.41;;;18.06;58.16
48622;BME280;34421;48.944;9.460;2023-07-20T05:23:17;98417.16;;;18.04;58.51
48622;BME280;34421;48.944;9.460;2023-07-20T05:25:43;98417.19;;;18.09;58.41
48622;BME280;34421;48.944;9.460;2023-07-20T05:28:08;98421.75;;;18.08;58.02
48622;BME280;34421;48.944;9.460;2023-07-20T05:30:34;98405.38;;;18.15;58.24
48622;BME280;34421;48.944;9.460;2023-07-20T05:32:59;98419.97;;;18.29;57.78
48622;BME280;34421;48.944;9.460;2023-07-20T05:35:25;98412.78;;;18.45;57.32
48622;BME280;34421;48.944;9.460;2023-07-20T05:37:51;98416.91;;;18.63;56.84
48622;BME280;34421;48.944;9.460;2023-07-20T05:40:16;98418.59;;;18.79;56.27
48622;BME280;34421;48.944;9.460;2023-07-20T05:42:46;98418.41;;;19.01;56.45
48622;BME280;34421;48.944;9.460;2023-07-20T05:45:12;98410.31;;;19.11;55.65
48622;BME280;34421;48.944;9.460;2023-07-20T05:47:37;98410.34;;;19.17;55.81
48622;BME280;34421;48.944;9.460;2023-07-20T05:50:03;98412.78;;;19.39;55.73
48622;BME280;34421;48.944;9.460;2023-07-20T05:52:28;98425.81;;;19.72;54.53
48622;BME280;34421;48.944;9.460;2023-07-20T05:54:54;98421.16;;;19.98;53.46
48622;BME280;34421;48.944;9.460;2023-07-20T05:57:20;98414.94;;;20.08;53.44
48622;BME280;34421;48.944;9.460;2023-07-20T05:59:45;98425.19;;;20.21;53.00
48622;BME280;34421;48.944;9.460;2023-07-20T06:02:11;98424.06;;;20.27;52.37
48622;BME280;34421;48.944;9.460;2023-07-20T06:04:37;98422.47;;;20.21;52.36
48622;BME280;34421;48.944;9.460;2023-07-20T06:07:02;98419.75;;;20.32;51.94
48622;BME280;34421;48.944;9.460;2023-07-20T06:09:27;98409.16;;;20.40;51.42
48622;BME280;34421;48.944;9.460;2023-07-20T06:11:54;98419.16;;;20.40;50.94
48622;BME280;34421;48.944;9.460;2023-07-20T06:14:19;98424.31;;;20.46;50.96
48622;BME280;34421;48.944;9.460;2023-07-20T06:16:45;98420.22;;;20.59;50.35
48622;BME280;34421;48.944;9.460;2023-07-20T06:19:10;98416.88;;;20.78;50.22
48622;BME280;34421;48.944;9.460;2023-07-20T06:21:39;98414.97;;;20.83;49.93
48622;BME280;34421;48.944;9.460;2023-07-20T06:24:04;98428.16;;;20.95;49.77
48622;BME280;34421;48.944;9.460;2023-07-20T06:26:30;98426.63;;;21.28;49.17
48622;BME280;34421;48.944;9.460;2023-07-20T06:28:56;98416.72;;;21.53;49.06
48622;BME280;34421;48.944;9.460;2023-07-20T06:31:21;98425.19;;;21.75;49.27
48622;BME280;34421;48.944;9.460;2023-07-20T06:33:47;98410.72;;;22.43;47.38
48622;BME280;34421;48.944;9.460;2023-07-20T06:36:12;98415.84;;;25.07;43.28
48622;BME280;34421;48.944;9.460;2023-07-20T06:38:38;98409.78;;;28.57;36.23
48622;BME280;34421;48.944;9.460;2023-07-20T06:41:03;98402.16;;;31.79;31.90
48622;BME280;34421;48.944;9.460;2023-07-20T06:43:28;98392.88;;;34.65;27.64
48622;BME280;34421;48.944;9.460;2023-07-20T06:45:54;98394.44;;;36.31;25.16
48622;BME280;34421;48.944;9.460;2023-07-20T06:48:20;98397.69;;;38.01;23.37
48622;BME280;34421;48.944;9.460;2023-07-20T06:50:46;98393.94;;;37.39;23.53
48622;BME280;34421;48.944;9.460;2023-07-20T06:53:11;98396.56;;;35.63;24.81
48622;BME280;34421;48.944;9.460;2023-07-20T06:55:36;98398.38;;;36.26;23.72
48622;BME280;34421;48.944;9.460;2023-07-20T06:58:03;98392.19;;;35.62;23.09
48622;BME280;34421;48.944;9.460;2023-07-20T07:00:28;98394.78;;;36.74;22.40
48622;BME280;34421;48.944;9.460;2023-07-20T07:02:53;98387.66;;;37.50;21.93
48622;BME280;34421;48.944;9.460;2023-07-20T07:05:19;98381.84;;;38.26;21.26
48622;BME280;34421;48.944;9.460;2023-07-20T07:07:44;98388.94;;;37.88;20.53
48622;BME280;34421;48.944;9.460;2023-07-20T07:10:09;98390.25;;;36.03;22.56
48622;BME280;34421;48.944;9.460;2023-07-20T07:12:35;98390.72;;;34.78;23.11
48622;BME280;34421;48.944;9.460;2023-07-20T07:15:04;98390.13;;;33.96;25.00
48622;BME280;34421;48.944;9.460;2023-07-20T07:17:31;98391.78;;;35.60;23.37
48622;BME280;34421;48.944;9.460;2023-07-20T07:19:58;98381.31;;;37.53;21.50
48622;BME280;34421;48.944;9.460;2023-07-20T07:22:23;98380.44;;;39.28;19.21
48622;BME280;34421;48.944;9.460;2023-07-20T07:24:48;98375.06;;;38.60;20.36
48622;BME280;34421;48.944;9.460;2023-07-20T07:27:14;98381.81;;;38.16;20.49
48622;BME280;34421;48.944;9.460;2023-07-20T07:29:42;98371.09;;;37.96;20.42
48622;BME280;34421;48.944;9.460;2023-07-20T07:32:09;98363.94;;;37.81;20.72
48622;BME280;34421;48.944;9.460;2023-07-20T07:34:36;98366.34;;;38.04;20.75
48622;BME280;34421;48.944;9.460;2023-07-20T07:37:01;98371.69;;;37.36;20.78
48622;BME280;34421;48.944;9.460;2023-07-20T07:39:26;98376.38;;;34.45;23.61
48622;BME280;34421;48.944;9.460;2023-07-20T07:41:54;98379.03;;;32.44;25.92
48622;BME280;34421;48.944;9.460;2023-07-20T07:44:20;98372.41;;;31.13;28.57
48622;BME280;34421;48.944;9.460;2023-07-20T07:46:46;98377.41;;;30.22;29.84
48622;BME280;34421;48.944;9.460;2023-07-20T07:49:11;98375.34;;;30.31;30.08
48622;BME280;34421;48.944;9.460;2023-07-20T07:51:37;98385.22;;;29.86;30.42
48622;BME280;34421;48.944;9.460;2023-07-20T07:54:02;98378.50;;;28.58;32.50
48622;BME280;34421;48.944;9.460;2023-07-20T07:56:27;98377.09;;;28.52;32.73
48622;BME280;34421;48.944;9.460;2023-07-20T07:58:53;98374.09;;;32.02;28.08
48622;BME280;34421;48.944;9.460;2023-07-20T08:01:18;98368.13;;;33.57;25.42
48622;BME280;34421;48.944;9.460;2023-07-20T08:03:47;98375.66;;;31.03;29.12
48622;BME280;34421;48.944;9.460;2023-07-20T08:06:13;98374.16;;;32.37;27.35
48622;BME280;34421;48.944;9.460;2023-07-20T08:08:39;98369.03;;;32.04;27.11
48622;BME280;34421;48.944;9.460;2023-07-20T08:11:04;98377.88;;;30.36;29.92
48622;BME280;34421;48.944;9.460;2023-07-20T08:13:30;98371.50;;;31.09;28.89
48622;BME280;34421;48.944;9.460;2023-07-20T08:15:55;98364.69;;;34.06;25.54
48622;BME280;34421;48.944;9.460;2023-07-20T08:18:21;98360.88;;;34.41;25.22
48622;BME280;34421;48.944;9.460;2023-07-20T08:20:46;98364.50;;;35.28;23.46
48622;BME280;34421;48.944;9.460;2023-07-20T08:23:13;98366.69;;;33.05;25.48
48622;BME280;34421;48.944;9.460;2023-07-20T08:25:39;98365.59;;;33.29;26.07
48622;BME280;34421;48.944;9.460;2023-07-20T08:28:09;98375.22;;;32.84;25.98
48622;BME280;34421;48.944;9.460;2023-07-20T08:30:48;98373.53;;;29.77;30.33
48622;BME280;34421;48.944;9.460;2023-07-20T08:33:15;98372.38;;;27.84;33.26
48622;BME280;34421;48.944;9.460;2023-07-20T08:35:41;98379.75;;;26.62;35.73
48622;BME280;34421;48.944;9.460;2023-07-20T08:38:06;98373.53;;;26.30;35.63
48622;BME280;34421;48.944;9.460;2023-07-20T08:40:33;98373.28;;;28.74;32.36
48622;BME280;34421;48.944;9.460;2023-07-20T08:43:04;98372.81;;;28.42;31.87
48622;BME280;34421;48.944;9.460;2023-07-20T08:45:29;98367.09;;;30.06;29.99
48622;BME280;34421;48.944;9.460;2023-07-20T08:48:01;98357.56;;;32.85;26.58
48622;BME280;34421;48.944;9.460;2023-07-20T08:50:30;98356.69;;;31.70;27.41
48622;BME280;34421;48.944;9.460;2023-07-20T08:52:57;98356.59;;;30.20;27.86
48622;BME280;34421;48.944;9.460;2023-07-20T08:55:23;98362.75;;;29.39;30.08
48622;BME280;34421;48.944;9.460;2023-07-20T08:57:59;98369.91;;;28.38;31.12
48622;BME280;34421;48.944;9.460;2023-07-20T09:00:26;98365.59;;;29.51;30.64
48622;BME280;34421;48.944;9.460;2023-07-20T09:02:55;98373.06;;;29.42;30.59
48622;BME280;34421;48.944;9.460;2023-07-20T09:05:22;98363.47;;;28.34;32.15
48622;BME280;34421;48.944;9.460;2023-07-20T09:07:48;98359.75;;;31.37;28.21
48622;BME280;34421;48.944;9.460;2023-07-20T09:10:14;98361.09;;;32.85;25.64
48622;BME280;34421;48.944;9.460;2023-07-20T09:12:41;98361.59;;;30.06;28.69
48622;BME280;34421;48.944;9.460;2023-07-20T09:15:07;98372.53;;;27.88;32.92
48622;BME280;34421;48.944;9.460;2023-07-20T09:17:33;98370.44;;;26.54;34.52
48622;BME280;34421;48.944;9.460;2023-07-20T09:20:01;98366.38;;;25.81;36.10
48622;BME280;34421;48.944;9.460;2023-07-20T09:22:31;98354.25;;;26.84;35.29
48622;BME280;34421;48.944;9.460;2023-07-20T09:24:57;98354.94;;;29.95;30.00
48622;BME280;34421;48.944;9.460;2023-07-20T09:27:34;98351.63;;;32.16;26.76
48622;BME280;34421;48.944;9.460;2023-07-20T09:30:01;98345.75;;;33.85;24.78
48622;BME280;34421;48.944;9.460;2023-07-20T09:32:27;98351.13;;;34.74;23.28
48622;BME280;34421;48.944;9.460;2023-07-20T09:34:52;98358.53;;;33.70;23.92
48622;BME280;34421;48.944;9.460;2023-07-20T09:37:21;98365.03;;;30.77;27.12
48622;BME280;34421;48.944;9.460;2023-07-20T09:39:47;98359.19;;;28.84;29.80
48622;BME280;34421;48.944;9.460;2023-07-20T09:42:15;98355.88;;;30.60;27.34
48622;BME280;34421;48.944;9.460;2023-07-20T09:44:40;98355.16;;;32.83;24.65
48622;BME280;34421;48.944;9.460;2023-07-20T09:47:08;98347.31;;;33.83;22.89
48622;BME280;34421;48.944;9.460;2023-07-20T09:49:39;98353.19;;;34.80;22.39
48622;BME280;34421;48.944;9.460;2023-07-20T09:52:04;98340.84;;;33.98;22.30
48622;BME280;34421;48.944;9.460;2023-07-20T09:54:31;98356.28;;;31.84;25.46
48622;BME280;34421;48.944;9.460;2023-07-20T09:56:58;98347.91;;;30.55;26.19
48622;BME280;34421;48.944;9.460;2023-07-20T09:59:23;98354.78;;;29.67;27.48
48622;BME280;34421;48.944;9.460;2023-07-20T10:01:49;98350.38;;;30.60;26.04
48622;BME280;34421;48.944;9.460;2023-07-20T10:04:16;98347.66;;;31.69;25.14
48622;BME280;34421;48.944;9.460;2023-07-20T10:06:43;98346.91;;;32.16;23.34
48622;BME280;34421;48.944;9.460;2023-07-20T10:09:12;98350.19;;;32.22;22.83
48622;BME280;34421;48.944;9.460;2023-07-20T10:11:46;98353.41;;;32.95;22.58
48622;BME280;34421;48.944;9.460;2023-07-20T10:14:19;98342.13;;;33.19;22.54
48622;BME280;34421;48.944;9.460;2023-07-20T10:16:50;98332.50;;;34.44;22.00
48622;BME280;34421;48.944;9.460;2023-07-20T10:19:27;98323.47;;;33.74;21.82
48622;BME280;34421;48.944;9.460;2023-07-20T10:22:03;98346.72;;;31.93;23.73
48622;BME280;34421;48.944;9.460;2023-07-20T10:24:32;98341.44;;;31.57;23.81
48622;BME280;34421;48.944;9.460;2023-07-20T10:27:00;98341.78;;;31.71;23.35
48622;BME280;34421;48.944;9.460;2023-07-20T10:29:26;98329.28;;;33.07;22.61
48622;BME280;34421;48.944;9.460;2023-07-20T10:31:54;98333.91;;;31.85;23.48
48622;BME280;34421;48.944;9.460;2023-07-20T10:34:20;98324.97;;;30.76;23.67
48622;BME280;34421;48.944;9.460;2023-07-20T10:36:46;98335.34;;;30.95;24.18
48622;BME280;34421;48.944;9.460;2023-07-20T10:39:46;98316.94;;;33.01;21.67
48622;BME280;34421;48.944;9.460;2023-07-20T10:42:12;98311.84;;;34.08;21.06
48622;BME280;34421;48.944;9.460;2023-07-20T10:44:38;98311.63;;;35.37;19.72
48622;BME280;34421;48.944;9.460;2023-07-20T10:47:08;98305.81;;;35.49;19.54
48622;BME280;34421;48.944;9.460;2023-07-20T10:49:34;98301.00;;;35.05;19.85
48622;BME280;34421;48.944;9.460;2023-07-20T10:52:04;98298.41;;;33.41;21.56
48622;BME280;34421;48.944;9.460;2023-07-20T10:57:22;98310.56;;;30.79;23.52
48622;BME280;34421;48.944;9.460;2023-07-20T10:59:48;98304.63;;;31.93;22.25
48622;BME280;34421;48.944;9.460;2023-07-20T11:02:18;98296.72;;;32.78;21.25
48622;BME280;34421;48.944;9.460;2023-07-20T11:04:47;98297.56;;;32.27;22.24
48622;BME280;34421;48.944;9.460;2023-07-20T11:07:17;98283.94;;;30.95;23.99
48622;BME280;34421;48.944;9.460;2023-07-20T11:09:43;98302.81;;;30.19;24.32
48622;BME280;34421;48.944;9.460;2023-07-20T11:12:13;98300.63;;;30.50;23.98
48622;BME280;34421;48.944;9.460;2023-07-20T11:14:54;98299.88;;;31.62;23.09
48622;BME280;34421;48.944;9.460;2023-07-20T11:17:29;98293.00;;;31.99;21.69
48622;BME280;34421;48.944;9.460;2023-07-20T11:19:58;98298.81;;;30.94;23.46
48622;BME280;34421;48.944;9.460;2023-07-20T11:22:26;98294.47;;;30.40;23.78
48622;BME280;34421;48.944;9.460;2023-07-20T11:24:56;98297.78;;;30.09;24.69
48622;BME280;34421;48.944;9.460;2023-07-20T11:27:22;98283.19;;;28.51;26.61
48622;BME280;34421;48.944;9.460;2023-07-20T11:29:48;98292.03;;;27.24;27.82
48622;BME280;34421;48.944;9.460;2023-07-20T11:32:20;98292.16;;;26.41;28.60
48622;BME280;34421;48.944;9.460;2023-07-20T11:34:47;98297.53;;;25.98;30.22
48622;BME280;34421;48.944;9.460;2023-07-20T11:37:13;98296.72;;;25.66;30.39
48622;BME280;34421;48.944;9.460;2023-07-20T11:39:38;98297.72;;;25.79;30.36
48622;BME280;34421;48.944;9.460;2023-07-20T11:42:05;98296.81;;;25.52;30.35
48622;BME280;34421;48.944;9.460;2023-07-20T11:44:31;98296.72;;;25.35;31.02
48622;BME280;34421;48.944;9.460;2023-07-20T11:49:28;98305.34;;;25.37;30.57
48622;BME280;34421;48.944;9.460;2023-07-20T11:51:55;98296.19;;;25.55;30.39
48622;BME280;34421;48.944;9.460;2023-07-20T11:54:21;98303.44;;;25.91;30.70
48622;BME280;34421;48.944;9.460;2023-07-20T11:56:48;98292.50;;;25.82;30.87
48622;BME280;34421;48.944;9.460;2023-07-20T11:59:13;98295.06;;;25.56;31.37
48622;BME280;34421;48.944;9.460;2023-07-20T12:01:38;98286.97;;;25.42;32.13
48622;BME280;34421;48.944;9.460;2023-07-20T12:04:04;98289.16;;;25.32;31.67
48622;BME280;34421;48.944;9.460;2023-07-20T12:06:30;98282.56;;;25.10;32.20
48622;BME280;34421;48.944;9.460;2023-07-20T12:08:57;98275.03;;;24.85;32.04
48622;BME280;34421;48.944;9.460;2023-07-20T12:11:36;98279.59;;;24.75;31.84
48622;BME280;34421;48.944;9.460;2023-07-20T12:14:03;98282.13;;;24.72;31.60
48622;BME280;34421;48.944;9.460;2023-07-20T12:16:29;98280.22;;;24.72;32.19
48622;BME280;34421;48.944;9.460;2023-07-20T12:19:08;98271.38;;;24.53;32.37
48622;BME280;34421;48.944;9.460;2023-07-20T12:21:35;98272.78;;;24.64;32.22
48622;BME280;34421;48.944;9.460;2023-07-20T12:24:05;98268.16;;;24.87;31.75
48622;BME280;34421;48.944;9.460;2023-07-20T12:26:33;98268.44;;;24.86;32.00
48622;BME280;34421;48.944;9.460;2023-07-20T12:28:59;98266.31;;;25.19;31.02
48622;BME280;34421;48.944;9.460;2023-07-20T12:31:25;98259.41;;;25.44;31.21
48622;BME280;34421;48.944;9.460;2023-07-20T12:33:51;98261.38;;;25.83;30.52
48622;BME280;34421;48.944;9.460;2023-07-20T12:36:17;98254.41;;;25.77;31.19
48622;BME280;34421;48.944;9.460;2023-07-20T12:38:43;98255.69;;;25.71;31.11
48622;BME280;34421;48.944;9.460;2023-07-20T12:41:10;98235.72;;;25.53;31.59
48622;BME280;34421;48.944;9.460;2023-07-20T12:43:37;98249.16;;;25.18;32.18
48622;BME280;34421;48.944;9.460;2023-07-20T12:46:03;98241.69;;;25.10;32.14
48622;BME280;34421;48.944;9.460;2023-07-20T12:48:28;98238.94;;;24.79;32.23
48622;BME280;34421;48.944;9.460;2023-07-20T12:50:53;98239.22;;;24.77;32.60
48622;BME280;34421;48.944;9.460;2023-07-20T12:53:18;98238.38;;;24.91;32.06
48622;BME280;34421;48.944;9.460;2023-07-20T12:55:44;98233.38;;;24.84;32.83
48622;BME280;34421;48.944;9.460;2023-07-20T12:58:09;98228.41;;;24.86;33.03
48622;BME280;34421;48.944;9.460;2023-07-20T13:00:35;98231.34;;;24.90;32.36
48622;BME280;34421;48.944;9.460;2023-07-20T13:03:01;98235.88;;;24.81;32.78
48622;BME280;34421;48.944;9.460;2023-07-20T13:05:32;98230.44;;;24.58;32.59
48622;BME280;34421;48.944;9.460;2023-07-20T13:07:58;98228.84;;;24.79;31.81
48622;BME280;34421;48.944;9.460;2023-07-20T13:10:24;98227.84;;;24.98;31.27
48622;BME280;34421;48.944;9.460;2023-07-20T13:12:49;98210.56;;;25.25;30.70